Time;durP1;ratioP1;P1;durP2;ratioP2;P2;SDS_P1;SDS_P2;PMS_P1;PMS_P2;Temp;Humidity;BMP_temperature;BMP_pressure;BME280_temperature;BME280_humidity;BME280_pressure;Samples;Min_cycle;Max_cycle;Signal;HPM_P1;HPM_P2
2023/01/31 00:00:12;;;;;;;5.40;1.90;;;;;;;;;;5033038;28;20117;-77
2023/01/31 00:02:37;;;;;;;5.63;1.70;;;;;;;;;;5032955;28;20469;-76
2023/01/31 00:05:03;;;;;;;6.18;2.05;;;;;;;;;;5032742;28;20060;-76
2023/01/31 00:07:28;;;;;;;6.15;2.03;;;;;;;;;;5032723;28;20053;-77
2023/01/31 00:09:53;;;;;;;5.82;1.80;;;;;;;;;;4998992;28;20041;-76
2023/01/31 00:12:19;;;;;;;5.97;1.85;;;;;;;;;;4998597;28;20072;-76
2023/01/31 00:14:44;;;;;;;5.10;1.80;;;;;;;;;;5033034;28;20037;-76
2023/01/31 00:17:09;;;;;;;4.63;1.75;;;;;;;;;;4998573;28;20127;-76
2023/01/31 00:19:35;;;;;;;2.30;1.50;;;;;;;;;;4998518;28;20025;-77
2023/01/31 00:22:00;;;;;;;4.07;1.60;;;;;;;;;;5015394;28;20037;-76
2023/01/31 00:24:25;;;;;;;4.35;1.40;;;;;;;;;;5015210;28;20033;-77
2023/01/31 00:26:55;;;;;;;5.25;1.73;;;;;;;;;;5015348;28;20073;-75
2023/01/31 00:29:21;;;;;;;3.75;1.63;;;;;;;;;;4999048;28;20107;-75
2023/01/31 00:31:46;;;;;;;6.97;1.83;;;;;;;;;;4982502;28;20419;-75
2023/01/31 00:34:12;;;;;;;4.82;1.90;;;;;;;;;;5032589;28;20025;-77
2023/01/31 00:36:37;;;;;;;4.88;1.65;;;;;;;;;;5017525;28;20443;-75
2023/01/31 00:39:04;;;;;;;6.78;1.50;;;;;;;;;;5002359;28;20140;-77
2023/01/31 00:41:30;;;;;;;4.55;1.50;;;;;;;;;;5002210;28;20477;-77
2023/01/31 00:43:55;;;;;;;7.05;2.00;;;;;;;;;;5018651;28;20064;-77
2023/01/31 00:46:21;;;;;;;6.07;1.80;;;;;;;;;;5002027;28;20057;-77
2023/01/31 00:48:47;;;;;;;5.78;1.88;;;;;;;;;;5002110;28;20037;-76
2023/01/31 00:51:12;;;;;;;4.22;1.77;;;;;;;;;;5002695;28;20491;-76
2023/01/31 00:53:38;;;;;;;3.58;1.70;;;;;;;;;;5036062;28;20029;-76
2023/01/31 00:56:09;;;;;;;5.57;1.65;;;;;;;;;;5018892;28;20078;-77
2023/01/31 00:58:35;;;;;;;3.65;1.70;;;;;;;;;;5018940;28;20103;-76
2023/01/31 01:01:09;;;;;;;5.15;1.75;;;;;;;;;;5018274;28;20529;-76
2023/01/31 01:03:35;;;;;;;;;;;;;;;;;;5018677;28;20044;-74
2023/01/31 01:06:00;;;;;;;3.97;1.58;;;;;;;;;;5018221;28;19909;-75
2023/01/31 01:08:26;;;;;;;6.43;1.70;;;;;;;;;;5035799;28;20029;-76
2023/01/31 01:10:52;;;;;;;8.70;1.85;;;;;;;;;;5035787;28;20029;-76
2023/01/31 01:13:17;;;;;;;4.53;1.52;;;;;;;;;;5036063;28;20040;-76
2023/01/31 01:15:42;;;;;;;5.75;2.05;;;;;;;;;;5018165;28;20120;-76
2023/01/31 01:18:08;;;;;;;3.45;1.40;;;;;;;;;;5001653;28;20141;-76
2023/01/31 01:20:34;;;;;;;4.03;1.50;;;;;;;;;;5035845;28;20536;-76
2023/01/31 01:22:59;;;;;;;3.30;1.52;;;;;;;;;;5018108;28;20029;-77
2023/01/31 01:25:25;;;;;;;4.60;2.08;;;;;;;;;;5017855;28;20552;-76
2023/01/31 01:27:50;;;;;;;4.55;1.88;;;;;;;;;;5035623;28;20385;-76
2023/01/31 01:30:16;;;;;;;4.80;1.77;;;;;;;;;;5035397;28;20117;-77
2023/01/31 01:32:41;;;;;;;5.43;2.08;;;;;;;;;;5017937;28;20400;-77
2023/01/31 01:35:08;;;;;;;3.90;1.50;;;;;;;;;;5035829;28;20507;-77
2023/01/31 01:37:34;;;;;;;2.65;1.40;;;;;;;;;;5018111;28;20033;-77
2023/01/31 01:39:59;;;;;;;3.28;1.33;;;;;;;;;;5035289;28;20026;-77
2023/01/31 01:42:26;;;;;;;4.88;1.73;;;;;;;;;;5017318;28;20124;-77
2023/01/31 01:44:58;;;;;;;4.80;1.40;;;;;;;;;;5001061;28;20058;-77
2023/01/31 01:47:37;;;;;;;5.00;1.63;;;;;;;;;;5000101;28;20025;-77
2023/01/31 01:50:14;;;;;;;3.65;1.38;;;;;;;;;;5035262;28;20025;-77
2023/01/31 01:52:47;;;;;;;3.00;1.45;;;;;;;;;;5017596;28;20491;-77
2023/01/31 01:55:17;;;;;;;3.20;1.52;;;;;;;;;;5017637;28;20029;-77
2023/01/31 01:57:43;;;;;;;5.80;1.38;;;;;;;;;;5034904;28;20076;-77
2023/01/31 02:00:17;;;;;;;5.35;1.50;;;;;;;;;;5017364;28;20108;-77
2023/01/31 02:02:43;;;;;;;2.22;1.30;;;;;;;;;;5017109;28;20021;-77
2023/01/31 02:05:10;;;;;;;2.75;1.33;;;;;;;;;;5000728;28;20035;-77
2023/01/31 02:07:35;;;;;;;5.13;1.63;;;;;;;;;;5017185;28;20151;-77
2023/01/31 02:10:11;;;;;;;4.60;1.90;;;;;;;;;;5017366;28;20477;-77
2023/01/31 02:12:37;;;;;;;4.45;1.35;;;;;;;;;;5017265;28;20034;-76
2023/01/31 02:15:03;;;;;;;2.85;1.83;;;;;;;;;;5017187;28;20029;-76
2023/01/31 02:17:28;;;;;;;4.47;1.40;;;;;;;;;;5016751;28;20071;-76
2023/01/31 02:19:54;;;;;;;4.43;1.67;;;;;;;;;;5016765;28;20121;-75
2023/01/31 02:22:22;;;;;;;4.00;1.50;;;;;;;;;;5034791;28;20025;-76
2023/01/31 02:25:21;;;;;;;6.60;1.30;;;;;;;;;;5016649;28;20026;-76
2023/01/31 02:27:58;;;;;;;4.97;1.77;;;;;;;;;;5016626;28;20075;-76
2023/01/31 02:31:05;;;;;;;5.22;1.85;;;;;;;;;;5016626;28;20027;-76
2023/01/31 02:33:39;;;;;;;4.43;1.65;;;;;;;;;;5028973;28;20496;-76
2023/01/31 02:36:28;;;;;;;3.88;1.48;;;;;;;;;;5034814;28;20104;-76
2023/01/31 02:39:18;;;;;;;5.35;1.83;;;;;;;;;;5016365;28;20028;-76
2023/01/31 02:41:53;;;;;;;3.22;1.67;;;;;;;;;;5034319;28;20045;-76
2023/01/31 02:47:41;;;;;;;5.18;1.60;;;;;;;;;;5034040;28;20040;-76
2023/01/31 02:50:26;;;;;;;4.35;1.45;;;;;;;;;;5033953;28;20112;-76
2023/01/31 02:53:12;;;;;;;3.25;1.25;;;;;;;;;;5016287;28;20037;-76
2023/01/31 02:58:30;;;;;;;4.65;1.80;;;;;;;;;;5033966;28;20032;-76
2023/01/31 03:00:57;;;;;;;3.30;1.45;;;;;;;;;;5016305;28;20167;-76
2023/01/31 03:03:30;;;;;;;5.05;1.60;;;;;;;;;;5016305;28;20494;-76
2023/01/31 03:06:24;;;;;;;3.63;1.70;;;;;;;;;;5033653;28;20049;-76
2023/01/31 03:08:53;;;;;;;5.13;1.73;;;;;;;;;;5018633;28;20037;-77
2023/01/31 03:11:20;;;;;;;4.05;1.52;;;;;;;;;;5016339;28;20038;-76
2023/01/31 03:13:48;;;;;;;6.22;2.03;;;;;;;;;;5016696;28;20049;-76
2023/01/31 03:19:33;;;;;;;4.00;1.80;;;;;;;;;;5018710;28;20047;-77
2023/01/31 03:22:23;;;;;;;10.15;1.80;;;;;;;;;;4999483;28;20029;-77
2023/01/31 03:24:49;;;;;;;9.00;1.80;;;;;;;;;;5015918;28;20500;-77
2023/01/31 03:27:15;;;;;;;2.33;1.20;;;;;;;;;;5015657;28;20120;-77
2023/01/31 03:29:41;;;;;;;5.50;1.85;;;;;;;;;;5015516;28;20108;-77
2023/01/31 03:32:15;;;;;;;3.75;1.42;;;;;;;;;;5033192;28;20098;-77
2023/01/31 03:34:40;;;;;;;3.45;1.50;;;;;;;;;;5015580;28;20033;-77
2023/01/31 03:37:18;;;;;;;4.57;1.60;;;;;;;;;;5033640;28;20540;-77
2023/01/31 03:39:52;;;;;;;5.75;1.60;;;;;;;;;;5015740;28;20055;-77
2023/01/31 03:42:51;;;;;;;4.97;1.55;;;;;;;;;;5015318;28;20060;-77
2023/01/31 03:45:31;;;;;;;4.90;2.30;;;;;;;;;;5015583;28;20053;-77
2023/01/31 03:47:58;;;;;;;5.35;1.75;;;;;;;;;;4999052;28;20095;-77
2023/01/31 03:50:29;;;;;;;4.35;2.10;;;;;;;;;;5015688;28;20029;-76
2023/01/31 03:53:24;;;;;;;5.60;1.80;;;;;;;;;;5015338;28;20116;-76
2023/01/31 03:56:07;;;;;;;3.72;1.85;;;;;;;;;;4996656;28;20377;-76
2023/01/31 03:58:42;;;;;;;4.05;1.80;;;;;;;;;;5015574;28;20112;-76
2023/01/31 04:01:08;;;;;;;6.22;1.60;;;;;;;;;;5015460;28;20101;-76
2023/01/31 04:03:55;;;;;;;3.47;1.85;;;;;;;;;;4998803;28;20033;-76
2023/01/31 04:06:20;;;;;;;4.13;1.65;;;;;;;;;;5032799;28;20033;-76
2023/01/31 04:08:46;;;;;;;4.45;1.73;;;;;;;;;;5015454;28;20029;-76
2023/01/31 04:11:13;;;;;;;4.93;1.50;;;;;;;;;;5035172;28;20438;-76
2023/01/31 04:13:39;;;;;;;6.05;1.88;;;;;;;;;;5019230;28;20457;-76
2023/01/31 04:16:05;;;;;;;5.18;2.03;;;;;;;;;;5019430;28;20076;-76
2023/01/31 04:18:30;;;;;;;4.47;1.80;;;;;;;;;;5019461;28;20113;-76
2023/01/31 04:20:55;;;;;;;7.70;2.03;;;;;;;;;;5002734;28;20060;-77
2023/01/31 04:23:21;;;;;;;3.97;1.80;;;;;;;;;;5002633;28;20044;-77
2023/01/31 04:25:46;;;;;;;6.05;1.90;;;;;;;;;;5019098;28;20437;-77
2023/01/31 04:28:11;;;;;;;5.22;2.00;;;;;;;;;;5019394;28;20056;-77
2023/01/31 04:30:37;;;;;;;4.82;2.20;;;;;;;;;;5036518;28;20034;-76
2023/01/31 04:33:03;;;;;;;5.78;1.92;;;;;;;;;;5019195;28;20029;-77
2023/01/31 04:35:28;;;;;;;6.30;2.30;;;;;;;;;;5002271;28;20040;-77
2023/01/31 04:37:53;;;;;;;7.25;1.85;;;;;;;;;;5036701;28;20037;-76
2023/01/31 04:40:19;;;;;;;5.63;1.80;;;;;;;;;;5018978;28;20025;-76
2023/01/31 04:42:44;;;;;;;5.50;1.85;;;;;;;;;;5036713;28;20029;-76
2023/01/31 04:45:10;;;;;;;5.97;1.90;;;;;;;;;;4985814;28;20041;-76
2023/01/31 04:47:35;;;;;;;3.00;1.80;;;;;;;;;;5018610;28;20037;-76
2023/01/31 04:50:01;;;;;;;7.55;1.80;;;;;;;;;;5018433;28;20056;-77
2023/01/31 04:52:26;;;;;;;6.75;2.15;;;;;;;;;;5036112;28;20092;-77
2023/01/31 04:54:51;;;;;;;5.45;2.20;;;;;;;;;;5018644;28;20554;-78
2023/01/31 04:57:17;;;;;;;8.02;2.33;;;;;;;;;;5018704;28;20025;-77
2023/01/31 04:59:42;;;;;;;7.90;2.50;;;;;;;;;;5002282;28;20053;-78
2023/01/31 05:02:07;;;;;;;7.53;2.20;;;;;;;;;;5018277;28;20396;-78
2023/01/31 05:04:33;;;;;;;4.63;2.08;;;;;;;;;;5036238;28;20083;-78
2023/01/31 05:06:58;;;;;;;5.00;2.13;;;;;;;;;;5002154;28;20041;-77
2023/01/31 05:09:24;;;;;;;7.25;2.67;;;;;;;;;;5018731;28;20029;-78
2023/01/31 05:11:50;;;;;;;9.25;2.13;;;;;;;;;;5002120;28;20428;-77
2023/01/31 05:14:15;;;;;;;10.52;2.53;;;;;;;;;;5002354;28;20123;-78
2023/01/31 05:16:45;;;;;;;5.07;2.00;;;;;;;;;;5001955;28;20025;-78
2023/01/31 05:19:12;;;;;;;8.98;2.35;;;;;;;;;;5036054;28;20107;-77
2023/01/31 05:21:53;;;;;;;7.03;2.47;;;;;;;;;;5000856;28;20040;-77
2023/01/31 05:24:22;;;;;;;4.68;2.00;;;;;;;;;;5035827;28;20034;-78
2023/01/31 05:26:49;;;;;;;9.93;2.88;;;;;;;;;;5018181;28;20025;-76
2023/01/31 05:29:15;;;;;;;7.57;2.53;;;;;;;;;;5036073;28;20053;-76
2023/01/31 05:31:40;;;;;;;9.82;3.15;;;;;;;;;;5017445;28;20053;-76
2023/01/31 05:34:06;;;;;;;6.13;2.40;;;;;;;;;;5035114;28;20392;-76
2023/01/31 05:36:31;;;;;;;6.80;2.38;;;;;;;;;;5001058;28;20037;-76
2023/01/31 05:38:56;;;;;;;9.88;2.35;;;;;;;;;;5035058;28;20028;-76
2023/01/31 05:41:22;;;;;;;8.15;2.20;;;;;;;;;;5017197;28;20037;-77
2023/01/31 05:43:47;;;;;;;14.32;2.70;;;;;;;;;;5035234;28;20072;-77
2023/01/31 05:46:12;;;;;;;7.47;2.15;;;;;;;;;;5017011;28;20058;-77
2023/01/31 05:48:38;;;;;;;12.10;2.95;;;;;;;;;;5034693;28;20542;-76
2023/01/31 05:51:04;;;;;;;5.55;2.30;;;;;;;;;;5034881;28;20057;-77
2023/01/31 05:53:29;;;;;;;6.68;2.13;;;;;;;;;;5034701;28;20029;-77
2023/01/31 05:55:54;;;;;;;6.65;2.28;;;;;;;;;;5016948;28;20037;-77
2023/01/31 05:58:20;;;;;;;7.55;2.67;;;;;;;;;;5016958;28;20052;-78
2023/01/31 06:00:45;;;;;;;9.88;2.72;;;;;;;;;;5016846;28;20124;-77
2023/01/31 06:03:10;;;;;;;8.63;3.03;;;;;;;;;;5034560;28;20100;-76
2023/01/31 06:05:36;;;;;;;20.98;3.03;;;;;;;;;;5034533;28;20037;-76
2023/01/31 06:08:01;;;;;;;18.77;3.60;;;;;;;;;;5017390;28;20040;-77
2023/01/31 06:10:27;;;;;;;13.70;3.40;;;;;;;;;;5017063;28;20026;-77
2023/01/31 06:12:52;;;;;;;11.35;2.92;;;;;;;;;;5017018;28;20033;-76
2023/01/31 06:15:17;;;;;;;11.95;3.25;;;;;;;;;;5035265;28;20026;-74
2023/01/31 06:17:43;;;;;;;10.82;3.30;;;;;;;;;;5017386;28;20037;-75
2023/01/31 06:20:09;;;;;;;13.85;3.30;;;;;;;;;;5017383;28;20026;-75
2023/01/31 06:22:34;;;;;;;7.45;3.03;;;;;;;;;;5017167;28;20384;-75
2023/01/31 06:24:59;;;;;;;11.85;3.50;;;;;;;;;;5035117;28;20038;-75
2023/01/31 06:27:25;;;;;;;9.38;3.15;;;;;;;;;;5017081;28;20039;-75
2023/01/31 06:29:50;;;;;;;8.85;2.88;;;;;;;;;;5034623;28;20107;-75
2023/01/31 06:32:16;;;;;;;8.70;2.83;;;;;;;;;;5034689;28;20104;-75
2023/01/31 06:34:41;;;;;;;9.73;3.22;;;;;;;;;;5016481;28;20044;-75
2023/01/31 06:37:09;;;;;;;7.75;2.53;;;;;;;;;;5016853;28;20079;-75
2023/01/31 06:39:35;;;;;;;12.93;3.08;;;;;;;;;;5034761;28;20029;-75
2023/01/31 06:42:01;;;;;;;11.52;2.50;;;;;;;;;;5016777;28;20026;-75
2023/01/31 06:44:26;;;;;;;12.02;2.88;;;;;;;;;;5034838;28;20059;-74
2023/01/31 06:46:51;;;;;;;8.60;2.42;;;;;;;;;;5034233;28;20081;-77
2023/01/31 06:49:17;;;;;;;8.30;2.72;;;;;;;;;;5016615;28;20038;-74
2023/01/31 06:51:42;;;;;;;6.72;2.40;;;;;;;;;;5000211;28;20025;-75
2023/01/31 06:54:08;;;;;;;8.85;2.78;;;;;;;;;;5034250;28;20102;-75
2023/01/31 06:56:33;;;;;;;6.97;2.85;;;;;;;;;;4984267;28;20040;-75
2023/01/31 06:58:58;;;;;;;8.00;3.03;;;;;;;;;;5000086;28;20032;-75
2023/01/31 07:01:25;;;;;;;11.35;3.00;;;;;;;;;;5034092;28;20025;-75
2023/01/31 07:03:50;;;;;;;6.22;2.55;;;;;;;;;;5034576;28;20043;-74
2023/01/31 07:06:18;;;;;;;10.02;3.25;;;;;;;;;;5000096;28;20488;-75
2023/01/31 07:08:44;;;;;;;8.90;2.70;;;;;;;;;;5016562;28;20029;-75
2023/01/31 07:11:09;;;;;;;8.20;2.38;;;;;;;;;;5034059;28;20135;-75
2023/01/31 07:13:34;;;;;;;5.10;2.47;;;;;;;;;;4983981;28;20061;-75
2023/01/31 07:16:00;;;;;;;6.63;2.60;;;;;;;;;;5016374;28;20043;-75
2023/01/31 07:18:25;;;;;;;5.45;2.55;;;;;;;;;;5033760;28;20048;-75
2023/01/31 07:20:50;;;;;;;5.63;2.45;;;;;;;;;;4999534;28;20029;-75
2023/01/31 07:23:16;;;;;;;9.38;2.75;;;;;;;;;;5016269;28;20356;-75
2023/01/31 07:25:41;;;;;;;5.75;2.40;;;;;;;;;;5033621;28;20068;-75
2023/01/31 07:28:07;;;;;;;9.60;2.70;;;;;;;;;;5016219;28;20030;-77
2023/01/31 07:30:32;;;;;;;7.70;2.92;;;;;;;;;;5016246;28;20040;-77
2023/01/31 07:32:59;;;;;;;5.38;2.17;;;;;;;;;;5016298;28;20118;-76
2023/01/31 07:35:24;;;;;;;5.78;2.25;;;;;;;;;;5033491;28;20480;-76
2023/01/31 07:37:52;;;;;;;5.95;2.20;;;;;;;;;;5033858;28;20029;-75
2023/01/31 07:40:18;;;;;;;6.97;2.75;;;;;;;;;;5015700;28;20025;-76
2023/01/31 07:42:43;;;;;;;9.70;3.08;;;;;;;;;;5015842;28;20112;-76
2023/01/31 07:45:13;;;;;;;6.22;2.38;;;;;;;;;;5014975;28;20493;-76
2023/01/31 07:47:39;;;;;;;8.73;2.67;;;;;;;;;;4999127;28;20049;-76
2023/01/31 07:50:05;;;;;;;6.13;2.30;;;;;;;;;;5015719;28;20442;-76
2023/01/31 07:52:31;;;;;;;6.63;2.53;;;;;;;;;;5033501;28;20033;-76
2023/01/31 07:54:57;;;;;;;7.05;2.67;;;;;;;;;;5033857;28;20060;-76
2023/01/31 07:57:22;;;;;;;6.43;2.63;;;;;;;;;;5015587;28;20075;-76
2023/01/31 07:59:48;;;;;;;5.85;2.28;;;;;;;;;;5033265;28;20053;-74
2023/01/31 08:05:00;;;;;;;6.88;2.60;;;;;;;;;;5033333;28;20036;-77
2023/01/31 08:07:26;;;;;;;6.80;2.65;;;;;;;;;;5015845;28;20025;-75
2023/01/31 08:09:51;;;;;;;6.68;2.47;;;;;;;;;;5015412;28;20463;-77
2023/01/31 08:12:17;;;;;;;6.32;2.30;;;;;;;;;;5015619;28;20121;-77
2023/01/31 08:14:42;;;;;;;5.13;1.95;;;;;;;;;;5015508;28;20376;-76
2023/01/31 08:17:09;;;;;;;6.07;2.17;;;;;;;;;;5015547;28;20029;-76
2023/01/31 08:19:34;;;;;;;5.70;2.50;;;;;;;;;;5015853;28;20021;-76
2023/01/31 08:22:01;;;;;;;7.78;2.38;;;;;;;;;;5033045;28;20036;-76
2023/01/31 08:24:26;;;;;;;7.10;2.45;;;;;;;;;;5015259;28;20032;-76
2023/01/31 08:26:51;;;;;;;6.13;2.38;;;;;;;;;;5015687;28;20423;-76
2023/01/31 08:29:17;;;;;;;9.25;2.47;;;;;;;;;;5015419;28;20038;-76
2023/01/31 08:31:43;;;;;;;5.70;2.42;;;;;;;;;;5015522;28;20054;-77
2023/01/31 08:34:09;;;;;;;6.80;2.20;;;;;;;;;;5015309;28;20099;-76
2023/01/31 08:36:35;;;;;;;6.32;2.60;;;;;;;;;;4998932;28;20039;-77
2023/01/31 08:39:01;;;;;;;5.40;2.42;;;;;;;;;;5015409;28;20034;-76
2023/01/31 08:41:28;;;;;;;5.88;2.05;;;;;;;;;;5015333;28;20034;-76
2023/01/31 08:43:55;;;;;;;6.00;2.47;;;;;;;;;;4999058;28;20036;-76
2023/01/31 08:46:21;;;;;;;7.97;2.58;;;;;;;;;;5015257;28;20045;-76
2023/01/31 08:48:47;;;;;;;9.98;2.70;;;;;;;;;;4998739;28;20037;-76
2023/01/31 08:51:13;;;;;;;7.72;2.70;;;;;;;;;;5032794;28;20388;-76
2023/01/31 08:53:40;;;;;;;7.07;2.30;;;;;;;;;;5015156;28;20032;-76
2023/01/31 08:56:07;;;;;;;6.38;2.65;;;;;;;;;;5015610;28;20461;-76
2023/01/31 08:58:33;;;;;;;6.43;2.35;;;;;;;;;;5002288;28;20507;-76
2023/01/31 09:01:10;;;;;;;7.88;3.08;;;;;;;;;;5036427;28;20155;-76
2023/01/31 09:03:36;;;;;;;8.18;3.00;;;;;;;;;;5018620;28;20033;-76
2023/01/31 09:06:04;;;;;;;5.93;2.55;;;;;;;;;;5018730;28;20503;-76
2023/01/31 09:08:30;;;;;;;6.50;2.42;;;;;;;;;;5002179;28;20032;-76
2023/01/31 09:10:57;;;;;;;6.40;2.10;;;;;;;;;;5002089;28;20038;-77
2023/01/31 09:13:23;;;;;;;10.52;3.35;;;;;;;;;;5018661;28;20515;-76
2023/01/31 09:16:09;;;;;;;9.98;2.47;;;;;;;;;;5018405;28;20038;-76
2023/01/31 09:18:36;;;;;;;10.82;2.92;;;;;;;;;;5001999;28;20108;-76
2023/01/31 09:21:12;;;;;;;8.18;2.72;;;;;;;;;;5036081;28;20416;-76
2023/01/31 09:23:38;;;;;;;5.32;2.30;;;;;;;;;;5018759;28;20025;-76
2023/01/31 09:26:03;;;;;;;7.95;2.65;;;;;;;;;;5018310;28;20032;-76
2023/01/31 09:28:29;;;;;;;5.68;2.33;;;;;;;;;;5018294;28;20034;-75
2023/01/31 09:30:55;;;;;;;6.75;2.55;;;;;;;;;;5035856;28;20391;-75
2023/01/31 09:33:21;;;;;;;6.18;2.63;;;;;;;;;;5018244;28;20032;-75
2023/01/31 09:35:58;;;;;;;5.63;2.33;;;;;;;;;;5018408;28;20030;-75
2023/01/31 09:38:24;;;;;;;8.45;2.15;;;;;;;;;;5018052;28;20021;-76
2023/01/31 09:40:50;;;;;;;6.47;2.47;;;;;;;;;;5018177;28;20036;-76
2023/01/31 09:43:17;;;;;;;6.25;2.15;;;;;;;;;;5018038;28;20439;-76
2023/01/31 09:45:43;;;;;;;8.25;3.03;;;;;;;;;;5017794;28;20047;-76
2023/01/31 09:48:15;;;;;;;5.65;2.38;;;;;;;;;;5035474;28;20037;-76
2023/01/31 09:50:44;;;;;;;6.95;2.80;;;;;;;;;;5001385;28;20417;-76
2023/01/31 09:53:13;;;;;;;7.88;2.63;;;;;;;;;;5001256;28;20017;-76
2023/01/31 09:55:59;;;;;;;6.25;2.10;;;;;;;;;;5001403;28;20033;-77
2023/01/31 09:58:33;;;;;;;6.43;2.33;;;;;;;;;;5035611;28;20029;-77
2023/01/31 10:01:10;;;;;;;7.40;2.38;;;;;;;;;;5017893;28;20349;-77
2023/01/31 10:03:42;;;;;;;5.22;2.30;;;;;;;;;;5001191;28;20451;-77
2023/01/31 10:06:10;;;;;;;11.68;2.20;;;;;;;;;;5035211;28;20057;-77
2023/01/31 10:09:01;;;;;;;5.97;2.30;;;;;;;;;;5016827;28;20029;-76
2023/01/31 10:11:29;;;;;;;6.80;2.25;;;;;;;;;;5017716;28;20365;-76
2023/01/31 10:13:59;;;;;;;5.75;2.22;;;;;;;;;;5018385;28;20083;-76
2023/01/31 10:16:24;;;;;;;5.68;2.30;;;;;;;;;;5034986;28;20044;-77
2023/01/31 10:18:55;;;;;;;7.03;2.20;;;;;;;;;;5034935;28;20380;-76
2023/01/31 10:21:25;;;;;;;5.38;2.00;;;;;;;;;;5000785;28;20443;-76
2023/01/31 10:23:55;;;;;;;5.18;1.95;;;;;;;;;;5017112;28;20104;-76
2023/01/31 10:26:26;;;;;;;5.88;2.25;;;;;;;;;;5000902;28;20048;-76
2023/01/31 10:29:19;;;;;;;8.07;2.72;;;;;;;;;;5000604;28;20025;-77
2023/01/31 10:31:49;;;;;;;6.43;2.53;;;;;;;;;;5016894;28;20137;-77
2023/01/31 10:34:25;;;;;;;4.03;2.08;;;;;;;;;;5017227;28;20080;-76
2023/01/31 10:37:00;;;;;;;5.78;2.10;;;;;;;;;;5035121;28;20032;-76
2023/01/31 10:39:36;;;;;;;6.15;2.25;;;;;;;;;;5017188;28;20048;-76
2023/01/31 10:42:18;;;;;;;6.00;2.28;;;;;;;;;;5000407;28;20037;-76
2023/01/31 10:45:05;;;;;;;6.60;2.50;;;;;;;;;;5017158;28;20029;-76
2023/01/31 10:47:36;;;;;;;5.93;2.28;;;;;;;;;;5016524;28;20488;-76
2023/01/31 10:50:13;;;;;;;5.63;2.45;;;;;;;;;;5016946;28;20025;-76
2023/01/31 10:52:57;;;;;;;6.30;2.30;;;;;;;;;;5016545;28;20474;-75
2023/01/31 10:55:40;;;;;;;8.18;2.67;;;;;;;;;;5034359;28;20033;-76
2023/01/31 10:58:12;;;;;;;7.10;2.65;;;;;;;;;;5016473;28;20036;-76
2023/01/31 11:00:38;;;;;;;8.68;2.70;;;;;;;;;;5000121;28;20036;-76
2023/01/31 11:03:03;;;;;;;5.00;2.63;;;;;;;;;;5016756;28;20037;-76
2023/01/31 11:05:29;;;;;;;6.15;2.40;;;;;;;;;;5033896;28;20056;-76
2023/01/31 11:07:56;;;;;;;5.22;2.35;;;;;;;;;;4983814;28;20032;-76
2023/01/31 11:10:27;;;;;;;8.27;2.65;;;;;;;;;;5016312;28;20037;-76
2023/01/31 11:13:03;;;;;;;5.95;2.45;;;;;;;;;;5016350;28;20094;-76
2023/01/31 11:15:35;;;;;;;7.80;2.88;;;;;;;;;;5016279;28;20027;-75
2023/01/31 11:18:00;;;;;;;5.05;2.13;;;;;;;;;;5015963;28;20017;-76
2023/01/31 11:20:29;;;;;;;5.97;2.50;;;;;;;;;;5015718;28;20083;-76
2023/01/31 11:22:55;;;;;;;6.05;2.08;;;;;;;;;;5016163;28;20026;-77
2023/01/31 11:25:22;;;;;;;6.05;2.38;;;;;;;;;;5033456;28;20021;-77
2023/01/31 11:27:50;;;;;;;4.72;2.25;;;;;;;;;;4999221;28;20025;-76
2023/01/31 11:30:23;;;;;;;6.03;2.10;;;;;;;;;;4999099;28;20043;-77
2023/01/31 11:32:49;;;;;;;4.32;1.83;;;;;;;;;;5016007;28;20096;-77
2023/01/31 11:35:14;;;;;;;4.43;2.20;;;;;;;;;;5016145;28;20108;-76
2023/01/31 11:37:56;;;;;;;6.15;2.20;;;;;;;;;;5033838;28;20107;-76
2023/01/31 11:40:21;;;;;;;6.63;1.98;;;;;;;;;;5033516;28;20025;-77
2023/01/31 11:42:52;;;;;;;7.20;2.33;;;;;;;;;;5033744;28;20032;-76
2023/01/31 11:45:21;;;;;;;5.70;2.33;;;;;;;;;;5015921;28;20053;-78
2023/01/31 11:47:56;;;;;;;6.13;1.95;;;;;;;;;;5015441;28;20049;-77
2023/01/31 11:50:33;;;;;;;4.85;2.13;;;;;;;;;;4999359;28;20215;-77
2023/01/31 11:53:13;;;;;;;3.65;2.22;;;;;;;;;;5015713;28;20021;-77
2023/01/31 11:55:39;;;;;;;7.47;2.13;;;;;;;;;;5015551;28;20031;-76
2023/01/31 11:58:19;;;;;;;4.32;1.90;;;;;;;;;;5015753;28;20033;-77
2023/01/31 12:00:56;;;;;;;4.93;2.08;;;;;;;;;;5033326;28;20026;-77
2023/01/31 12:03:22;;;;;;;4.07;1.63;;;;;;;;;;5015540;28;20044;-77
2023/01/31 12:06:01;;;;;;;6.20;1.92;;;;;;;;;;5015689;28;20519;-77
2023/01/31 12:08:41;;;;;;;8.02;1.98;;;;;;;;;;5015415;28;20427;-78
2023/01/31 12:11:18;;;;;;;7.30;2.03;;;;;;;;;;5015628;28;20064;-77
2023/01/31 12:13:49;;;;;;;3.65;1.65;;;;;;;;;;5033324;28;20392;-78
2023/01/31 12:16:20;;;;;;;4.03;1.73;;;;;;;;;;4998343;28;20463;-77
2023/01/31 12:19:07;;;;;;;4.40;1.75;;;;;;;;;;5014874;28;20017;-77
2023/01/31 12:22:01;;;;;;;4.40;1.88;;;;;;;;;;5014636;28;20476;-76
2023/01/31 12:24:54;;;;;;;4.18;1.60;;;;;;;;;;5032475;28;20056;-76
2023/01/31 12:27:20;;;;;;;5.50;1.98;;;;;;;;;;5014604;28;20025;-76
2023/01/31 12:30:16;;;;;;;4.13;1.50;;;;;;;;;;5032139;28;20030;-76
2023/01/31 12:32:50;;;;;;;4.35;1.80;;;;;;;;;;5035182;28;20033;-76
2023/01/31 12:35:28;;;;;;;5.65;1.70;;;;;;;;;;5036219;28;20029;-76
2023/01/31 12:38:05;;;;;;;4.72;1.85;;;;;;;;;;5018376;28;20029;-76
2023/01/31 12:40:37;;;;;;;7.55;2.05;;;;;;;;;;5036011;28;20026;-78
2023/01/31 12:43:31;;;;;;;6.07;2.35;;;;;;;;;;5018472;28;20545;-77
2023/01/31 12:46:08;;;;;;;7.43;2.00;;;;;;;;;;5030030;28;20045;-77
2023/01/31 12:48:40;;;;;;;3.47;1.50;;;;;;;;;;5036083;28;20025;-77
2023/01/31 12:51:22;;;;;;;5.15;1.58;;;;;;;;;;5035872;28;20028;-76
2023/01/31 12:54:05;;;;;;;5.32;1.48;;;;;;;;;;5018235;28;20026;-77
2023/01/31 12:56:55;;;;;;;5.63;1.95;;;;;;;;;;5035820;28;20029;-77
2023/01/31 12:59:36;;;;;;;4.18;1.70;;;;;;;;;;5035717;28;20021;-77
2023/01/31 13:02:39;;;;;;;4.97;1.70;;;;;;;;;;5001720;28;20052;-77
2023/01/31 13:05:24;;;;;;;4.38;1.35;;;;;;;;;;5035667;28;20104;-77
2023/01/31 13:07:55;;;;;;;4.90;1.80;;;;;;;;;;5035671;28;20026;-77
2023/01/31 13:10:27;;;;;;;4.75;1.75;;;;;;;;;;5001498;28;20052;-78
2023/01/31 13:12:53;;;;;;;6.25;1.70;;;;;;;;;;5035734;28;20084;-77
2023/01/31 13:15:36;;;;;;;6.18;1.50;;;;;;;;;;5001308;28;20040;-76
2023/01/31 13:18:03;;;;;;;4.53;1.50;;;;;;;;;;5017818;28;20028;-76
2023/01/31 13:20:37;;;;;;;4.47;1.38;;;;;;;;;;5001228;28;20032;-76
2023/01/31 13:23:08;;;;;;;3.63;1.17;;;;;;;;;;5017629;28;20067;-77
2023/01/31 13:25:38;;;;;;;4.63;1.60;;;;;;;;;;5017624;28;20053;-76
2023/01/31 13:28:17;;;;;;;2.63;1.83;;;;;;;;;;5017541;28;20059;-77
2023/01/31 13:30:54;;;;;;;4.65;1.70;;;;;;;;;;5000970;28;20025;-76
2023/01/31 13:33:35;;;;;;;4.82;1.60;;;;;;;;;;5035089;28;20013;-75
2023/01/31 13:36:32;;;;;;;6.20;1.58;;;;;;;;;;5017560;28;20071;-75
2023/01/31 13:39:01;;;;;;;6.22;1.50;;;;;;;;;;5000934;28;20029;-76
2023/01/31 13:41:31;;;;;;;2.33;1.35;;;;;;;;;;5017435;28;20025;-76
2023/01/31 13:43:58;;;;;;;4.88;1.88;;;;;;;;;;5016177;28;20499;-76
2023/01/31 13:46:31;;;;;;;4.55;1.55;;;;;;;;;;5000905;28;20065;-76
2023/01/31 13:49:05;;;;;;;2.92;1.27;;;;;;;;;;5001043;28;20021;-77
2023/01/31 13:51:44;;;;;;;4.47;1.42;;;;;;;;;;5001431;28;20044;-76
2023/01/31 13:54:18;;;;;;;7.35;1.67;;;;;;;;;;5000772;28;20029;-76
2023/01/31 13:56:48;;;;;;;4.53;1.33;;;;;;;;;;5017083;28;20061;-75
2023/01/31 13:59:19;;;;;;;7.70;1.83;;;;;;;;;;5017073;28;20099;-75
2023/01/31 14:01:46;;;;;;;4.10;1.40;;;;;;;;;;5017621;28;20021;-75
2023/01/31 14:04:16;;;;;;;5.00;1.23;;;;;;;;;;5017455;28;20105;-74
2023/01/31 14:07:06;;;;;;;4.82;1.73;;;;;;;;;;5017087;28;20028;-75
2023/01/31 14:09:36;;;;;;;3.70;1.55;;;;;;;;;;5034482;28;20488;-74
2023/01/31 14:12:17;;;;;;;5.07;1.58;;;;;;;;;;5016662;28;20041;-75
2023/01/31 14:14:50;;;;;;;5.28;1.60;;;;;;;;;;5034392;28;20036;-75
2023/01/31 14:17:27;;;;;;;4.90;1.57;;;;;;;;;;5016801;28;20034;-75
2023/01/31 14:19:56;;;;;;;4.63;2.10;;;;;;;;;;5016496;28;20025;-76
2023/01/31 14:22:26;;;;;;;4.20;1.55;;;;;;;;;;5016422;28;20044;-75
2023/01/31 14:24:55;;;;;;;4.40;1.50;;;;;;;;;;5016753;28;20025;-73
2023/01/31 14:27:23;;;;;;;3.55;1.48;;;;;;;;;;5016562;28;20029;-73
2023/01/31 14:30:10;;;;;;;4.95;1.80;;;;;;;;;;5033923;28;20387;-74
2023/01/31 14:32:39;;;;;;;3.47;1.35;;;;;;;;;;5034050;28;20097;-75
2023/01/31 14:35:24;;;;;;;3.95;1.35;;;;;;;;;;4999811;28;20520;-75
2023/01/31 14:37:58;;;;;;;3.97;1.50;;;;;;;;;;5016292;28;20035;-75
2023/01/31 14:40:36;;;;;;;7.88;1.70;;;;;;;;;;5033840;28;20025;-76
2023/01/31 14:43:14;;;;;;;2.30;1.23;;;;;;;;;;4999689;28;20472;-76
2023/01/31 14:46:07;;;;;;;3.92;1.58;;;;;;;;;;5033564;28;20128;-76
2023/01/31 14:49:05;;;;;;;3.57;1.50;;;;;;;;;;5033653;28;20068;-77
2023/01/31 14:51:45;;;;;;;4.45;1.90;;;;;;;;;;5030535;28;20358;-76
2023/01/31 14:54:35;;;;;;;3.95;1.85;;;;;;;;;;5015580;28;20029;-77
2023/01/31 14:57:30;;;;;;;5.32;1.40;;;;;;;;;;5033657;28;20095;-77
2023/01/31 14:59:58;;;;;;;4.88;1.65;;;;;;;;;;5015782;28;20028;-77
2023/01/31 15:02:29;;;;;;;6.93;2.00;;;;;;;;;;5033531;28;20104;-76
2023/01/31 15:05:21;;;;;;;6.03;1.90;;;;;;;;;;5033492;28;20029;-77
2023/01/31 15:08:25;;;;;;;6.65;2.33;;;;;;;;;;4999543;28;20029;-76
2023/01/31 15:11:13;;;;;;;6.25;2.08;;;;;;;;;;5015490;28;20116;-77
2023/01/31 15:13:41;;;;;;;6.50;2.28;;;;;;;;;;5015754;28;20120;-76
2023/01/31 15:16:25;;;;;;;5.68;1.98;;;;;;;;;;5033296;28;20060;-77